sensor_id;sensor_type;location;lat;lon;timestamp;pressure;altitude;pressure_sealevel;temperature;humidity
74169;BME280;62523;53.336;83.690;2023-02-28T00:00:01;100757.75;;;-9.79;66.57
74169;BME280;62523;53.336;83.690;2023-02-28T00:05:10;100737.69;;;-9.90;66.30
74169;BME280;62523;53.336;83.690;2023-02-28T00:10:15;100739.81;;;-9.81;65.53
74169;BME280;62523;53.336;83.690;2023-02-28T00:15:20;100748.25;;;-9.64;65.33
74169;BME280;62523;53.336;83.690;2023-02-28T00:20:21;100726.34;;;-9.78;65.90
74169;BME280;62523;53.336;83.690;2023-02-28T00:25:24;100726.50;;;-9.93;66.54
74169;BME280;62523;53.336;83.690;2023-02-28T00:30:26;100736.72;;;-9.92;65.98
74169;BME280;62523;53.336;83.690;2023-02-28T00:35:27;100716.09;;;-9.42;63.85
74169;BME280;62523;53.336;83.690;2023-02-28T00:40:28;100715.69;;;-9.52;63.86
74169;BME280;62523;53.336;83.690;2023-02-28T00:45:30;100707.81;;;-9.56;63.22
74169;BME280;62523;53.336;83.690;2023-02-28T00:50:31;100712.63;;;-9.62;64.21
74169;BME280;62523;53.336;83.690;2023-02-28T00:55:32;100706.22;;;-9.72;64.41
74169;BME280;62523;53.336;83.690;2023-02-28T01:00:33;100684.91;;;-9.74;64.88
74169;BME280;62523;53.336;83.690;2023-02-28T01:05:34;100685.69;;;-9.93;65.57
74169;BME280;62523;53.336;83.690;2023-02-28T01:10:36;100678.69;;;-9.97;66.66
74169;BME280;62523;53.336;83.690;2023-02-28T01:15:39;100675.84;;;-10.03;67.13
74169;BME280;62523;53.336;83.690;2023-02-28T01:20:42;100680.13;;;-10.02;67.04
74169;BME280;62523;53.336;83.690;2023-02-28T01:25:47;100639.88;;;-10.10;67.36
74169;BME280;62523;53.336;83.690;2023-02-28T01:30:50;100642.94;;;-9.99;66.74
74169;BME280;62523;53.336;83.690;2023-02-28T01:36:09;100656.84;;;-9.92;66.87
74169;BME280;62523;53.336;83.690;2023-02-28T01:41:16;100654.44;;;-9.89;66.80
74169;BME280;62523;53.336;83.690;2023-02-28T01:46:18;100647.44;;;-9.93;66.37
74169;BME280;62523;53.336;83.690;2023-02-28T01:51:29;100652.03;;;-9.86;66.61
74169;BME280;62523;53.336;83.690;2023-02-28T01:56:34;100653.47;;;-9.73;66.27
74169;BME280;62523;53.336;83.690;2023-02-28T02:01:37;100626.78;;;-9.62;65.02
74169;BME280;62523;53.336;83.690;2023-02-28T02:06:42;100628.38;;;-9.64;65.75
74169;BME280;62523;53.336;83.690;2023-02-28T02:11:44;100617.41;;;-9.63;66.38
74169;BME280;62523;53.336;83.690;2023-02-28T02:28:41;100620.97;;;-9.40;65.58
74169;BME280;62523;53.336;83.690;2023-02-28T02:40:22;100615.34;;;-9.13;63.25
74169;BME280;62523;53.336;83.690;2023-02-28T02:45:02;100592.28;;;-8.95;62.30
74169;BME280;62523;53.336;83.690;2023-02-28T02:50:11;100591.78;;;-8.87;62.18
74169;BME280;62523;53.336;83.690;2023-02-28T02:55:14;100580.50;;;-8.92;62.46
74169;BME280;62523;53.336;83.690;2023-02-28T03:00:21;100551.31;;;-8.77;62.37
74169;BME280;62523;53.336;83.690;2023-02-28T03:05:26;100535.44;;;-8.49;61.37
74169;BME280;62523;53.336;83.690;2023-02-28T03:10:35;100527.97;;;-8.20;59.98
74169;BME280;62523;53.336;83.690;2023-02-28T03:21:07;100520.34;;;-7.50;57.56
74169;BME280;62523;53.336;83.690;2023-02-28T03:26:18;100508.75;;;-7.16;57.22
74169;BME280;62523;53.336;83.690;2023-02-28T03:36:42;100490.13;;;-7.10;55.13
74169;BME280;62523;53.336;83.690;2023-02-28T03:47:02;100467.59;;;-6.68;53.52
74169;BME280;62523;53.336;83.690;2023-02-28T03:52:06;100453.97;;;-6.09;53.58
74169;BME280;62523;53.336;83.690;2023-02-28T04:02:46;100441.78;;;-5.86;52.79
74169;BME280;62523;53.336;83.690;2023-02-28T04:07:53;100442.69;;;-5.84;51.55
74169;BME280;62523;53.336;83.690;2023-02-28T04:12:54;100430.94;;;-5.76;51.66
74169;BME280;62523;53.336;83.690;2023-02-28T04:17:55;100387.94;;;-5.85;51.86
74169;BME280;62523;53.336;83.690;2023-02-28T04:22:57;100394.09;;;-5.45;50.79
74169;BME280;62523;53.336;83.690;2023-02-28T04:27:58;100411.16;;;-5.48;50.82
74169;BME280;62523;53.336;83.690;2023-02-28T04:33:00;100411.97;;;-5.16;51.11
74169;BME280;62523;53.336;83.690;2023-02-28T04:38:01;100389.75;;;-5.14;50.57
74169;BME280;62523;53.336;83.690;2023-02-28T04:43:02;100396.41;;;-4.86;49.82
74169;BME280;62523;53.336;83.690;2023-02-28T04:48:04;100372.56;;;-4.79;49.50
74169;BME280;62523;53.336;83.690;2023-02-28T04:53:05;100368.66;;;-4.20;49.07
74169;BME280;62523;53.336;83.690;2023-02-28T04:58:06;100361.41;;;-4.40;48.85
74169;BME280;62523;53.336;83.690;2023-02-28T05:03:07;100339.53;;;-4.18;49.25
74169;BME280;62523;53.336;83.690;2023-02-28T05:08:08;100349.34;;;-4.00;48.85
74169;BME280;62523;53.336;83.690;2023-02-28T05:13:13;100330.72;;;-3.86;47.70
74169;BME280;62523;53.336;83.690;2023-02-28T05:18:14;100325.34;;;-3.50;47.63
74169;BME280;62523;53.336;83.690;2023-02-28T05:23:17;100330.66;;;-3.38;47.15
74169;BME280;62523;53.336;83.690;2023-02-28T05:28:18;100299.50;;;-2.98;46.64
74169;BME280;62523;53.336;83.690;2023-02-28T05:33:20;100283.69;;;-2.59;45.01
74169;BME280;62523;53.336;83.690;2023-02-28T05:38:21;100284.78;;;-2.40;44.37
74169;BME280;62523;53.336;83.690;2023-02-28T05:43:22;100273.19;;;-1.96;44.00
74169;BME280;62523;53.336;83.690;2023-02-28T05:48:23;100267.22;;;-1.92;44.34
74169;BME280;62523;53.336;83.690;2023-02-28T05:53:24;100275.56;;;-2.16;44.67
74169;BME280;62523;53.336;83.690;2023-02-28T05:58:25;100275.09;;;-1.77;44.27
74169;BME280;62523;53.336;83.690;2023-02-28T06:03:31;100270.06;;;-1.60;44.38
74169;BME280;62523;53.336;83.690;2023-02-28T06:08:32;100267.03;;;-2.11;45.14
74169;BME280;62523;53.336;83.690;2023-02-28T06:13:33;100245.59;;;-2.03;46.11
74169;BME280;62523;53.336;83.690;2023-02-28T06:18:34;100244.47;;;-2.29;45.07
74169;BME280;62523;53.336;83.690;2023-02-28T06:23:38;100237.09;;;-1.93;45.09
74169;BME280;62523;53.336;83.690;2023-02-28T06:28:40;100234.28;;;-2.13;46.02
74169;BME280;62523;53.336;83.690;2023-02-28T06:33:42;100208.53;;;-2.07;46.95
74169;BME280;62523;53.336;83.690;2023-02-28T06:38:44;100223.88;;;-2.22;47.69
74169;BME280;62523;53.336;83.690;2023-02-28T06:43:45;100229.94;;;-2.19;46.63
74169;BME280;62523;53.336;83.690;2023-02-28T06:48:46;100216.38;;;-1.98;46.77
74169;BME280;62523;53.336;83.690;2023-02-28T06:53:48;100202.78;;;-1.78;46.12
74169;BME280;62523;53.336;83.690;2023-02-28T06:58:50;100195.78;;;-1.90;47.32
74169;BME280;62523;53.336;83.690;2023-02-28T07:03:55;100184.50;;;-2.01;47.26
74169;BME280;62523;53.336;83.690;2023-02-28T07:08:57;100182.63;;;-2.19;47.16
74169;BME280;62523;53.336;83.690;2023-02-28T07:13:58;100180.22;;;-1.96;47.41
74169;BME280;62523;53.336;83.690;2023-02-28T07:18:59;100168.81;;;-2.24;47.69
74169;BME280;62523;53.336;83.690;2023-02-28T07:24:00;100164.56;;;-2.16;48.33
74169;BME280;62523;53.336;83.690;2023-02-28T07:29:01;100146.28;;;-2.39;48.94
74169;BME280;62523;53.336;83.690;2023-02-28T07:34:03;100135.47;;;-1.97;49.68
74169;BME280;62523;53.336;83.690;2023-02-28T07:39:06;100144.84;;;-2.07;49.03
74169;BME280;62523;53.336;83.690;2023-02-28T07:44:13;100148.34;;;-2.01;48.97
74169;BME280;62523;53.336;83.690;2023-02-28T07:49:14;100133.06;;;-1.74;48.48
74169;BME280;62523;53.336;83.690;2023-02-28T07:54:15;100129.59;;;-1.73;48.05
74169;BME280;62523;53.336;83.690;2023-02-28T07:59:16;100126.25;;;-1.59;48.05
74169;BME280;62523;53.336;83.690;2023-02-28T08:04:18;100100.41;;;-1.62;48.15
74169;BME280;62523;53.336;83.690;2023-02-28T08:09:19;100090.00;;;-1.75;48.46
74169;BME280;62523;53.336;83.690;2023-02-28T08:14:20;100097.84;;;-1.61;48.97
74169;BME280;62523;53.336;83.690;2023-02-28T08:19:21;100089.13;;;-1.77;48.75
74169;BME280;62523;53.336;83.690;2023-02-28T08:24:23;100083.91;;;-1.86;49.44
74169;BME280;62523;53.336;83.690;2023-02-28T08:29:24;100090.13;;;-1.49;48.31
74169;BME280;62523;53.336;83.690;2023-02-28T08:34:25;100079.84;;;-1.39;48.09
74169;BME280;62523;53.336;83.690;2023-02-28T08:39:27;100080.56;;;-1.70;48.49
74169;BME280;62523;53.336;83.690;2023-02-28T08:44:28;100077.97;;;-1.63;49.11
74169;BME280;62523;53.336;83.690;2023-02-28T08:49:29;100059.88;;;-1.68;48.91
74169;BME280;62523;53.336;83.690;2023-02-28T08:54:30;100052.19;;;-1.53;49.73
74169;BME280;62523;53.336;83.690;2023-02-28T08:59:32;100020.31;;;-1.66;48.95
74169;BME280;62523;53.336;83.690;2023-02-28T09:04:34;100044.53;;;-1.36;47.63
74169;BME280;62523;53.336;83.690;2023-02-28T09:09:35;100043.56;;;-1.59;47.26
74169;BME280;62523;53.336;83.690;2023-02-28T09:14:36;100018.66;;;-1.42;47.15
74169;BME280;62523;53.336;83.690;2023-02-28T09:19:37;100014.41;;;-1.28;46.31
74169;BME280;62523;53.336;83.690;2023-02-28T09:24:38;99996.31;;;-1.25;46.06
74169;BME280;62523;53.336;83.690;2023-02-28T09:29:39;100008.38;;;-1.25;46.57
74169;BME280;62523;53.336;83.690;2023-02-28T09:34:41;100008.38;;;-1.33;45.71
74169;BME280;62523;53.336;83.690;2023-02-28T09:39:42;100012.63;;;-1.47;46.53
74169;BME280;62523;53.336;83.690;2023-02-28T09:44:45;99992.81;;;-1.48;46.74
74169;BME280;62523;53.336;83.690;2023-02-28T09:49:48;100003.16;;;-1.43;48.23
74169;BME280;62523;53.336;83.690;2023-02-28T09:54:50;99997.84;;;-1.77;49.06
74169;BME280;62523;53.336;83.690;2023-02-28T10:00:03;99996.94;;;-1.86;50.03
74169;BME280;62523;53.336;83.690;2023-02-28T10:05:19;99997.88;;;-1.76;49.14
74169;BME280;62523;53.336;83.690;2023-02-28T10:10:27;99995.25;;;-1.79;50.27
74169;BME280;62523;53.336;83.690;2023-02-28T10:15:31;99981.56;;;-1.62;49.72
74169;BME280;62523;53.336;83.690;2023-02-28T10:20:38;99982.34;;;-1.79;49.90
74169;BME280;62523;53.336;83.690;2023-02-28T10:25:44;99976.34;;;-1.73;49.85
74169;BME280;62523;53.336;83.690;2023-02-28T10:30:50;99952.19;;;-1.89;50.26
74169;BME280;62523;53.336;83.690;2023-02-28T10:35:52;99964.13;;;-2.08;51.76
74169;BME280;62523;53.336;83.690;2023-02-28T10:51:14;99955.44;;;-2.27;53.55
74169;BME280;62523;53.336;83.690;2023-02-28T10:56:20;99931.31;;;-2.29;53.21
74169;BME280;62523;53.336;83.690;2023-02-28T11:01:57;99925.31;;;-2.27;53.47
74169;BME280;62523;53.336;83.690;2023-02-28T11:07:02;99914.94;;;-2.40;54.59
74169;BME280;62523;53.336;83.690;2023-02-28T11:12:06;99907.16;;;-2.43;54.37
74169;BME280;62523;53.336;83.690;2023-02-28T11:17:26;99900.34;;;-2.32;53.56
74169;BME280;62523;53.336;83.690;2023-02-28T11:22:31;99898.66;;;-2.30;53.14
74169;BME280;62523;53.336;83.690;2023-02-28T11:32:34;99848.72;;;-2.35;53.13
74169;BME280;62523;53.336;83.690;2023-02-28T11:37:36;99856.44;;;-2.40;53.58
74169;BME280;62523;53.336;83.690;2023-02-28T11:42:50;99842.69;;;-2.37;54.69
74169;BME280;62523;53.336;83.690;2023-02-28T11:48:38;99821.16;;;-2.39;54.34
74169;BME280;62523;53.336;83.690;2023-02-28T11:54:07;99835.81;;;-2.38;55.04
74169;BME280;62523;53.336;83.690;2023-02-28T12:05:16;99816.78;;;-2.59;56.91
74169;BME280;62523;53.336;83.690;2023-02-28T12:15:45;99808.13;;;-2.67;57.33
74169;BME280;62523;53.336;83.690;2023-02-28T12:21:11;99778.84;;;-2.86;58.81
74169;BME280;62523;53.336;83.690;2023-02-28T12:31:31;99760.81;;;-2.74;57.44
74169;BME280;62523;53.336;83.690;2023-02-28T12:36:36;99779.72;;;-2.73;58.22
74169;BME280;62523;53.336;83.690;2023-02-28T12:41:46;99772.81;;;-2.82;58.16
74169;BME280;62523;53.336;83.690;2023-02-28T12:46:51;99777.22;;;-2.59;57.65
74169;BME280;62523;53.336;83.690;2023-02-28T12:51:58;99754.91;;;-2.50;57.27
74169;BME280;62523;53.336;83.690;2023-02-28T13:13:15;99757.47;;;-2.54;57.66
74169;BME280;62523;53.336;83.690;2023-02-28T13:18:43;99748.00;;;-2.52;58.03
74169;BME280;62523;53.336;83.690;2023-02-28T13:34:13;99724.81;;;-2.49;58.39
74169;BME280;62523;53.336;83.690;2023-02-28T14:06:31;99673.28;;;-2.21;57.45
74169;BME280;62523;53.336;83.690;2023-02-28T14:11:35;99667.25;;;-2.13;57.58
74169;BME280;62523;53.336;83.690;2023-02-28T14:32:53;99660.38;;;-2.06;57.15
74169;BME280;62523;53.336;83.690;2023-02-28T14:37:59;99660.38;;;-2.08;57.12
74169;BME280;62523;53.336;83.690;2023-02-28T14:43:03;99640.59;;;-1.93;55.72
74169;BME280;62523;53.336;83.690;2023-02-28T14:48:09;99641.44;;;-1.91;56.19
74169;BME280;62523;53.336;83.690;2023-02-28T14:53:21;99596.69;;;-2.04;55.57
74169;BME280;62523;53.336;83.690;2023-02-28T14:58:33;99582.94;;;-2.01;55.90
74169;BME280;62523;53.336;83.690;2023-02-28T15:03:38;99630.22;;;-1.75;55.37
74169;BME280;62523;53.336;83.690;2023-02-28T15:08:43;99603.53;;;-1.81;55.92
74169;BME280;62523;53.336;83.690;2023-02-28T15:13:49;99596.66;;;-1.84;55.77
74169;BME280;62523;53.336;83.690;2023-02-28T15:19:03;99614.72;;;-1.81;56.22
74169;BME280;62523;53.336;83.690;2023-02-28T15:29:44;99565.69;;;-1.82;56.39
74169;BME280;62523;53.336;83.690;2023-02-28T15:34:46;99573.38;;;-1.70;56.04
74169;BME280;62523;53.336;83.690;2023-02-28T15:39:51;99551.81;;;-1.61;55.65
74169;BME280;62523;53.336;83.690;2023-02-28T15:44:52;99558.72;;;-1.59;55.55
74169;BME280;62523;53.336;83.690;2023-02-28T15:50:09;99542.34;;;-1.59;55.83
74169;BME280;62523;53.336;83.690;2023-02-28T15:55:19;99542.44;;;-1.76;56.56
74169;BME280;62523;53.336;83.690;2023-02-28T16:00:23;99532.09;;;-1.79;57.21
74169;BME280;62523;53.336;83.690;2023-02-28T16:05:27;99533.78;;;-1.69;56.80
74169;BME280;62523;53.336;83.690;2023-02-28T16:10:31;99529.50;;;-1.73;57.81
74169;BME280;62523;53.336;83.690;2023-02-28T16:15:38;99531.22;;;-1.68;57.77
74169;BME280;62523;53.336;83.690;2023-02-28T16:20:42;99526.00;;;-1.61;57.68
74169;BME280;62523;53.336;83.690;2023-02-28T16:25:45;99520.00;;;-1.65;57.81
74169;BME280;62523;53.336;83.690;2023-02-28T16:30:47;99513.97;;;-1.69;58.38
74169;BME280;62523;53.336;83.690;2023-02-28T16:35:49;99503.66;;;-1.67;58.57
74169;BME280;62523;53.336;83.690;2023-02-28T16:40:50;99502.78;;;-1.69;59.21
74169;BME280;62523;53.336;83.690;2023-02-28T16:45:56;99487.28;;;-1.66;59.24
74169;BME280;62523;53.336;83.690;2023-02-28T16:51:00;99463.22;;;-1.76;59.57
74169;BME280;62523;53.336;83.690;2023-02-28T16:56:01;99458.88;;;-1.72;59.79
74169;BME280;62523;53.336;83.690;2023-02-28T17:01:03;99464.91;;;-1.70;60.62
74169;BME280;62523;53.336;83.690;2023-02-28T17:06:04;99463.16;;;-1.68;59.62
74169;BME280;62523;53.336;83.690;2023-02-28T17:11:06;99475.16;;;-1.53;59.30
74169;BME280;62523;53.336;83.690;2023-02-28T17:16:27;99439.09;;;-1.72;59.81
74169;BME280;62523;53.336;83.690;2023-02-28T17:21:30;99451.94;;;-1.56;59.15
74169;BME280;62523;53.336;83.690;2023-02-28T17:26:32;99422.78;;;-1.81;59.96
74169;BME280;62523;53.336;83.690;2023-02-28T17:31:33;99434.75;;;-1.65;59.53
74169;BME280;62523;53.336;83.690;2023-02-28T17:36:39;99447.72;;;-1.79;60.01
74169;BME280;62523;53.336;83.690;2023-02-28T17:41:41;99433.91;;;-1.69;59.74
74169;BME280;62523;53.336;83.690;2023-02-28T17:46:43;99439.13;;;-1.79;60.57
74169;BME280;62523;53.336;83.690;2023-02-28T17:51:44;99436.59;;;-1.93;61.55
74169;BME280;62523;53.336;83.690;2023-02-28T17:56:45;99436.59;;;-1.93;60.74
74169;BME280;62523;53.336;83.690;2023-02-28T18:01:46;99424.53;;;-1.94;61.44
74169;BME280;62523;53.336;83.690;2023-02-28T18:06:48;99433.16;;;-1.95;61.39
74169;BME280;62523;53.336;83.690;2023-02-28T18:11:52;99423.69;;;-1.87;61.30
74169;BME280;62523;53.336;83.690;2023-02-28T18:16:55;99436.56;;;-1.92;61.63
74169;BME280;62523;53.336;83.690;2023-02-28T18:21:57;99426.28;;;-1.96;61.88
74169;BME280;62523;53.336;83.690;2023-02-28T18:26:58;99430.56;;;-1.94;61.82
74169;BME280;62523;53.336;83.690;2023-02-28T18:31:59;99420.28;;;-2.09;62.39
74169;BME280;62523;53.336;83.690;2023-02-28T18:37:02;99447.78;;;-1.94;62.22
74169;BME280;62523;53.336;83.690;2023-02-28T18:42:03;99452.97;;;-2.00;62.85
74169;BME280;62523;53.336;83.690;2023-02-28T18:47:04;99444.38;;;-1.98;62.53
74169;BME280;62523;53.336;83.690;2023-02-28T18:52:06;99411.72;;;-2.16;63.24
74169;BME280;62523;53.336;83.690;2023-02-28T18:57:07;99453.88;;;-2.12;63.89
74169;BME280;62523;53.336;83.690;2023-02-28T19:02:09;99453.00;;;-2.16;64.15
74169;BME280;62523;53.336;83.690;2023-02-28T19:07:10;99457.31;;;-2.16;64.26
74169;BME280;62523;53.336;83.690;2023-02-28T19:12:11;99442.72;;;-2.20;63.75
74169;BME280;62523;53.336;83.690;2023-02-28T19:17:12;99447.88;;;-2.19;64.07
74169;BME280;62523;53.336;83.690;2023-02-28T19:22:15;99453.03;;;-2.27;64.61
74169;BME280;62523;53.336;83.690;2023-02-28T19:27:17;99447.03;;;-2.32;64.33
74169;BME280;62523;53.336;83.690;2023-02-28T19:32:22;99435.88;;;-2.34;64.45
74169;BME280;62523;53.336;83.690;2023-02-28T19:37:23;99459.13;;;-2.43;66.16
74169;BME280;62523;53.336;83.690;2023-02-28T19:42:24;99457.38;;;-2.42;65.53
74169;BME280;62523;53.336;83.690;2023-02-28T19:47:29;99444.50;;;-2.49;65.96
74169;BME280;62523;53.336;83.690;2023-02-28T19:52:30;99455.66;;;-2.43;65.16
74169;BME280;62523;53.336;83.690;2023-02-28T19:57:31;99459.97;;;-2.50;65.72
74169;BME280;62523;53.336;83.690;2023-02-28T20:02:33;99431.59;;;-2.61;65.76
74169;BME280;62523;53.336;83.690;2023-02-28T20:07:34;99453.94;;;-2.57;66.44
74169;BME280;62523;53.336;83.690;2023-02-28T20:12:35;99456.53;;;-2.51;65.27
74169;BME280;62523;53.336;83.690;2023-02-28T20:17:36;99448.81;;;-2.64;66.13
74169;BME280;62523;53.336;83.690;2023-02-28T20:22:38;99456.53;;;-2.57;65.95
74169;BME280;62523;53.336;83.690;2023-02-28T20:27:39;99437.63;;;-2.60;65.55
74169;BME280;62523;53.336;83.690;2023-02-28T20:32:40;99437.63;;;-2.63;66.00
74169;BME280;62523;53.336;83.690;2023-02-28T20:37:41;99419.59;;;-2.77;66.13
74169;BME280;62523;53.336;83.690;2023-02-28T20:42:42;99425.59;;;-2.61;65.23
74169;BME280;62523;53.336;83.690;2023-02-28T20:47:44;99418.72;;;-2.76;67.04
74169;BME280;62523;53.336;83.690;2023-02-28T20:52:45;99415.28;;;-2.80;66.52
74169;BME280;62523;53.336;83.690;2023-02-28T20:57:46;99433.34;;;-2.80;67.27
74169;BME280;62523;53.336;83.690;2023-02-28T21:02:47;99420.44;;;-2.80;66.97
74169;BME280;62523;53.336;83.690;2023-02-28T21:07:48;99416.16;;;-2.82;67.66
74169;BME280;62523;53.336;83.690;2023-02-28T21:12:50;99416.16;;;-2.85;67.60
74169;BME280;62523;53.336;83.690;2023-02-28T21:17:54;99417.03;;;-2.85;67.38
74169;BME280;62523;53.336;83.690;2023-02-28T21:22:55;99400.69;;;-2.92;68.11
74169;BME280;62523;53.336;83.690;2023-02-28T21:27:56;99406.69;;;-2.86;67.28
74169;BME280;62523;53.336;83.690;2023-02-28T21:32:57;99392.94;;;-2.89;66.85
74169;BME280;62523;53.336;83.690;2023-02-28T21:37:58;99383.50;;;-3.02;67.21
74169;BME280;62523;53.336;83.690;2023-02-28T21:42:59;99377.50;;;-2.99;67.04
74169;BME280;62523;53.336;83.690;2023-02-28T21:48:00;99389.53;;;-2.92;67.59
74169;BME280;62523;53.336;83.690;2023-02-28T21:53:02;99382.66;;;-2.96;67.56
74169;BME280;62523;53.336;83.690;2023-02-28T21:58:03;99401.56;;;-2.90;66.71
74169;BME280;62523;53.336;83.690;2023-02-28T22:03:04;99391.25;;;-2.96;67.80
74169;BME280;62523;53.336;83.690;2023-02-28T22:08:05;99385.25;;;-3.01;67.69
74169;BME280;62523;53.336;83.690;2023-02-28T22:13:06;99385.22;;;-3.04;67.47
74169;BME280;62523;53.336;83.690;2023-02-28T22:18:07;99375.78;;;-3.05;67.56
74169;BME280;62523;53.336;83.690;2023-02-28T22:23:08;99399.81;;;-3.01;67.86
74169;BME280;62523;53.336;83.690;2023-02-28T22:28:09;99411.88;;;-3.06;68.22
74169;BME280;62523;53.336;83.690;2023-02-28T22:33:11;99396.41;;;-3.05;68.32
74169;BME280;62523;53.336;83.690;2023-02-28T22:38:12;99395.56;;;-3.01;67.65
74169;BME280;62523;53.336;83.690;2023-02-28T22:43:13;99392.97;;;-3.02;67.56
74169;BME280;62523;53.336;83.690;2023-02-28T22:48:14;99379.25;;;-3.07;68.08
74169;BME280;62523;53.336;83.690;2023-02-28T22:53:15;99379.22;;;-3.06;68.10
74169;BME280;62523;53.336;83.690;2023-02-28T22:58:17;99390.38;;;-3.09;68.20
74169;BME280;62523;53.336;83.690;2023-02-28T23:03:19;99385.22;;;-3.10;68.50
74169;BME280;62523;53.336;83.690;2023-02-28T23:08:20;99377.50;;;-3.15;69.17
74169;BME280;62523;53.336;83.690;2023-02-28T23:13:22;99368.06;;;-3.06;69.00
74169;BME280;62523;53.336;83.690;2023-02-28T23:18:24;99374.91;;;-3.16;69.28
74169;BME280;62523;53.336;83.690;2023-02-28T23:23:25;99364.59;;;-3.10;68.95
74169;BME280;62523;53.336;83.690;2023-02-28T23:28:27;99378.34;;;-3.08;69.21
74169;BME280;62523;53.336;83.690;2023-02-28T23:33:28;99378.38;;;-3.16;69.52
74169;BME280;62523;53.336;83.690;2023-02-28T23:38:29;99362.06;;;-3.13;69.80
74169;BME280;62523;53.336;83.690;2023-02-28T23:43:30;99382.66;;;-3.09;69.27
74169;BME280;62523;53.336;83.690;2023-02-28T23:48:32;99378.34;;;-3.14;69.40
74169;BME280;62523;53.336;83.690;2023-02-28T23:53:38;99389.53;;;-3.07;69.73
74169;BME280;62523;53.336;83.690;2023-02-28T23:58:41;99386.09;;;-3.16;70.63
